sensor_id;sensor_type;location;lat;lon;timestamp;temperature;humidity
1005;DHT22;491;53.480;10.174;2023-02-28T00:00:12;2.70;1.00
1005;DHT22;491;53.480;10.174;2023-02-28T00:02:44;2.60;1.00
1005;DHT22;491;53.480;10.174;2023-02-28T00:05:12;2.60;1.00
1005;DHT22;491;53.480;10.174;2023-02-28T00:07:38;2.50;1.00
1005;DHT22;491;53.480;10.174;2023-02-28T00:10:06;2.40;1.00
1005;DHT22;491;53.480;10.174;2023-02-28T00:12:33;2.40;1.00
1005;DHT22;491;53.480;10.174;2023-02-28T00:14:58;2.20;1.00
1005;DHT22;491;53.480;10.174;2023-02-28T00:17:27;2.30;1.00
1005;DHT22;491;53.480;10.174;2023-02-28T00:19:52;2.20;1.00
1005;DHT22;491;53.480;10.174;2023-02-28T00:22:19;2.10;6.70
1005;DHT22;491;53.480;10.174;2023-02-28T00:24:45;2.10;49.80
1005;DHT22;491;53.480;10.174;2023-02-28T00:27:11;2.10;30.30
1005;DHT22;491;53.480;10.174;2023-02-28T00:29:37;2.10;20.70
1005;DHT22;491;53.480;10.174;2023-02-28T00:32:02;2.00;17.10
1005;DHT22;491;53.480;10.174;2023-02-28T00:34:28;2.00;1.00
1005;DHT22;491;53.480;10.174;2023-02-28T00:36:54;2.00;1.00
1005;DHT22;491;53.480;10.174;2023-02-28T00:39:19;2.00;1.00
1005;DHT22;491;53.480;10.174;2023-02-28T00:41:45;1.80;1.00
1005;DHT22;491;53.480;10.174;2023-02-28T00:44:13;1.30;1.00
1005;DHT22;491;53.480;10.174;2023-02-28T00:46:39;1.20;99.80
1005;DHT22;491;53.480;10.174;2023-02-28T00:49:04;1.10;99.90
1005;DHT22;491;53.480;10.174;2023-02-28T00:51:30;1.10;99.90
1005;DHT22;491;53.480;10.174;2023-02-28T00:53:55;1.20;99.90
1005;DHT22;491;53.480;10.174;2023-02-28T00:56:20;1.30;99.90
1005;DHT22;491;53.480;10.174;2023-02-28T00:58:46;1.10;99.90
1005;DHT22;491;53.480;10.174;2023-02-28T01:01:11;1.00;99.90
1005;DHT22;491;53.480;10.174;2023-02-28T01:03:37;1.00;99.90
1005;DHT22;491;53.480;10.174;2023-02-28T01:06:04;1.10;99.90
1005;DHT22;491;53.480;10.174;2023-02-28T01:08:29;1.10;99.90
1005;DHT22;491;53.480;10.174;2023-02-28T01:10:55;0.70;99.90
1005;DHT22;491;53.480;10.174;2023-02-28T01:13:21;0.50;99.90
1005;DHT22;491;53.480;10.174;2023-02-28T01:15:52;0.60;99.90
1005;DHT22;491;53.480;10.174;2023-02-28T01:18:21;0.80;99.90
1005;DHT22;491;53.480;10.174;2023-02-28T01:20:47;0.60;99.90
1005;DHT22;491;53.480;10.174;2023-02-28T01:23:12;0.60;99.90
1005;DHT22;491;53.480;10.174;2023-02-28T01:25:38;0.70;99.90
1005;DHT22;491;53.480;10.174;2023-02-28T01:28:04;0.80;99.90
1005;DHT22;491;53.480;10.174;2023-02-28T01:30:30;0.60;99.90
1005;DHT22;491;53.480;10.174;2023-02-28T01:35:21;0.00;99.90
1005;DHT22;491;53.480;10.174;2023-02-28T01:40:13;0.10;99.90
1005;DHT22;491;53.480;10.174;2023-02-28T01:42:39;0.20;99.90
1005;DHT22;491;53.480;10.174;2023-02-28T01:45:29;0.10;99.90
1005;DHT22;491;53.480;10.174;2023-02-28T01:47:58;0.10;99.90
1005;DHT22;491;53.480;10.174;2023-02-28T01:50:28;0.30;99.90
1005;DHT22;491;53.480;10.174;2023-02-28T01:52:57;0.20;99.90
1005;DHT22;491;53.480;10.174;2023-02-28T01:55:25;0.10;99.90
1005;DHT22;491;53.480;10.174;2023-02-28T01:57:56;0.00;99.90
1005;DHT22;491;53.480;10.174;2023-02-28T02:00:25;0.10;99.90
1005;DHT22;491;53.480;10.174;2023-02-28T02:02:56;-0.10;99.90
1005;DHT22;491;53.480;10.174;2023-02-28T02:05:28;-0.30;99.90
1005;DHT22;491;53.480;10.174;2023-02-28T02:08:08;-0.10;99.90
1005;DHT22;491;53.480;10.174;2023-02-28T02:10:55;-0.20;99.90
1005;DHT22;491;53.480;10.174;2023-02-28T02:16:17;0.10;99.90
1005;DHT22;491;53.480;10.174;2023-02-28T03:25:59;-0.60;99.90
1005;DHT22;491;53.480;10.174;2023-02-28T03:28:37;-0.80;99.90
1005;DHT22;491;53.480;10.174;2023-02-28T03:31:27;-0.90;99.90
1005;DHT22;491;53.480;10.174;2023-02-28T03:36:29;-1.30;99.90
1005;DHT22;491;53.480;10.174;2023-02-28T03:39:05;-1.00;99.90
1005;DHT22;491;53.480;10.174;2023-02-28T03:41:47;-1.00;99.90
1005;DHT22;491;53.480;10.174;2023-02-28T06:55:57;0.20;99.90
1005;DHT22;491;53.480;10.174;2023-02-28T06:58:23;0.20;99.90
1005;DHT22;491;53.480;10.174;2023-02-28T07:00:51;0.70;99.90
1005;DHT22;491;53.480;10.174;2023-02-28T07:03:17;1.90;99.90
1005;DHT22;491;53.480;10.174;2023-02-28T07:05:44;3.00;1.00
1005;DHT22;491;53.480;10.174;2023-02-28T07:08:10;4.10;1.00
1005;DHT22;491;53.480;10.174;2023-02-28T07:10:37;5.00;1.00
1005;DHT22;491;53.480;10.174;2023-02-28T07:13:03;5.20;1.00
1005;DHT22;491;53.480;10.174;2023-02-28T07:15:29;5.10;1.00
1005;DHT22;491;53.480;10.174;2023-02-28T07:17:57;5.40;1.00
1005;DHT22;491;53.480;10.174;2023-02-28T07:20:26;5.90;99.90
1005;DHT22;491;53.480;10.174;2023-02-28T07:22:51;6.50;99.90
1005;DHT22;491;53.480;10.174;2023-02-28T07:25:22;5.90;99.90
1005;DHT22;491;53.480;10.174;2023-02-28T07:27:48;5.80;99.90
1005;DHT22;491;53.480;10.174;2023-02-28T07:30:16;6.10;99.90
1005;DHT22;491;53.480;10.174;2023-02-28T07:32:42;6.30;99.90
1005;DHT22;491;53.480;10.174;2023-02-28T07:35:08;6.90;99.90
1005;DHT22;491;53.480;10.174;2023-02-28T07:37:33;7.30;99.90
1005;DHT22;491;53.480;10.174;2023-02-28T07:40:06;7.60;99.90
1005;DHT22;491;53.480;10.174;2023-02-28T07:42:34;7.50;99.90
1005;DHT22;491;53.480;10.174;2023-02-28T07:45:00;7.40;99.90
1005;DHT22;491;53.480;10.174;2023-02-28T07:47:26;7.60;99.90
1005;DHT22;491;53.480;10.174;2023-02-28T07:49:51;7.80;99.90
1005;DHT22;491;53.480;10.174;2023-02-28T07:52:17;7.60;99.90
1005;DHT22;491;53.480;10.174;2023-02-28T07:54:42;8.10;99.90
1005;DHT22;491;53.480;10.174;2023-02-28T07:57:08;8.60;99.90
1005;DHT22;491;53.480;10.174;2023-02-28T07:59:33;8.70;99.90
1005;DHT22;491;53.480;10.174;2023-02-28T08:01:59;9.60;99.90
1005;DHT22;491;53.480;10.174;2023-02-28T08:04:24;9.60;99.90
1005;DHT22;491;53.480;10.174;2023-02-28T08:06:53;9.40;99.90
1005;DHT22;491;53.480;10.174;2023-02-28T08:09:25;9.90;99.90
1005;DHT22;491;53.480;10.174;2023-02-28T08:11:51;9.80;99.90
1005;DHT22;491;53.480;10.174;2023-02-28T08:14:16;10.10;99.90
1005;DHT22;491;53.480;10.174;2023-02-28T08:16:42;10.30;99.90
1005;DHT22;491;53.480;10.174;2023-02-28T08:19:08;10.40;99.90
1005;DHT22;491;53.480;10.174;2023-02-28T08:21:34;10.90;99.90
1005;DHT22;491;53.480;10.174;2023-02-28T08:23:59;10.70;99.90
1005;DHT22;491;53.480;10.174;2023-02-28T08:26:25;11.20;99.90
1005;DHT22;491;53.480;10.174;2023-02-28T08:28:51;11.10;99.90
1005;DHT22;491;53.480;10.174;2023-02-28T08:31:17;11.00;99.90
1005;DHT22;491;53.480;10.174;2023-02-28T08:33:43;11.10;99.90
1005;DHT22;491;53.480;10.174;2023-02-28T08:36:10;11.20;99.90
1005;DHT22;491;53.480;10.174;2023-02-28T08:38:39;11.40;99.90
1005;DHT22;491;53.480;10.174;2023-02-28T08:41:07;11.60;99.90
1005;DHT22;491;53.480;10.174;2023-02-28T08:43:34;11.80;99.90
1005;DHT22;491;53.480;10.174;2023-02-28T08:46:00;11.60;99.90
1005;DHT22;491;53.480;10.174;2023-02-28T08:48:28;12.10;99.90
1005;DHT22;491;53.480;10.174;2023-02-28T08:53:25;12.20;99.90
1005;DHT22;491;53.480;10.174;2023-02-28T08:56:05;12.30;99.90
1005;DHT22;491;53.480;10.174;2023-02-28T08:58:31;12.80;99.90
1005;DHT22;491;53.480;10.174;2023-02-28T09:00:57;12.90;99.90
1005;DHT22;491;53.480;10.174;2023-02-28T09:03:22;12.90;99.90
1005;DHT22;491;53.480;10.174;2023-02-28T09:05:56;12.90;99.90
1005;DHT22;491;53.480;10.174;2023-02-28T09:08:22;13.20;99.90
1005;DHT22;491;53.480;10.174;2023-02-28T09:10:48;13.10;99.90
1005;DHT22;491;53.480;10.174;2023-02-28T09:13:13;13.20;99.90
1005;DHT22;491;53.480;10.174;2023-02-28T09:15:39;12.90;99.90
1005;DHT22;491;53.480;10.174;2023-02-28T09:18:05;13.10;99.90
1005;DHT22;491;53.480;10.174;2023-02-28T09:20:32;13.00;99.90
1005;DHT22;491;53.480;10.174;2023-02-28T09:22:58;13.00;99.90
1005;DHT22;491;53.480;10.174;2023-02-28T09:25:23;14.00;99.90
1005;DHT22;491;53.480;10.174;2023-02-28T09:27:51;14.00;99.90
1005;DHT22;491;53.480;10.174;2023-02-28T09:30:17;14.50;99.90
1005;DHT22;491;53.480;10.174;2023-02-28T09:32:43;14.30;99.90
1005;DHT22;491;53.480;10.174;2023-02-28T09:35:18;14.40;99.90
1005;DHT22;491;53.480;10.174;2023-02-28T09:37:44;14.00;99.90
1005;DHT22;491;53.480;10.174;2023-02-28T09:40:10;14.20;99.90
1005;DHT22;491;53.480;10.174;2023-02-28T09:42:36;13.90;99.90
1005;DHT22;491;53.480;10.174;2023-02-28T09:48:14;14.00;99.90
1005;DHT22;491;53.480;10.174;2023-02-28T09:51:23;14.40;99.90
1005;DHT22;491;53.480;10.174;2023-02-28T09:53:53;14.70;99.90
1005;DHT22;491;53.480;10.174;2023-02-28T09:56:22;15.20;99.90
1005;DHT22;491;53.480;10.174;2023-02-28T09:59:01;15.10;99.60
1005;DHT22;491;53.480;10.174;2023-02-28T10:07:16;15.00;98.90
1005;DHT22;491;53.480;10.174;2023-02-28T10:09:46;15.50;99.90
1005;DHT22;491;53.480;10.174;2023-02-28T10:12:13;15.70;99.50
1005;DHT22;491;53.480;10.174;2023-02-28T10:14:45;16.20;99.00
1005;DHT22;491;53.480;10.174;2023-02-28T10:17:22;16.30;98.20
1005;DHT22;491;53.480;10.174;2023-02-28T10:25:15;16.80;97.70
1005;DHT22;491;53.480;10.174;2023-02-28T10:27:41;17.20;97.50
1005;DHT22;491;53.480;10.174;2023-02-28T10:30:10;16.60;92.60
1005;DHT22;491;53.480;10.174;2023-02-28T10:32:37;17.00;96.70
1005;DHT22;491;53.480;10.174;2023-02-28T10:35:20;17.10;95.70
1005;DHT22;491;53.480;10.174;2023-02-28T10:38:13;17.30;97.20
1005;DHT22;491;53.480;10.174;2023-02-28T10:40:40;18.20;99.90
1005;DHT22;491;53.480;10.174;2023-02-28T10:43:07;18.10;98.50
1005;DHT22;491;53.480;10.174;2023-02-28T10:46:10;17.60;94.30
1005;DHT22;491;53.480;10.174;2023-02-28T10:51:13;17.60;95.30
1005;DHT22;491;53.480;10.174;2023-02-28T10:53:47;17.70;95.00
1005;DHT22;491;53.480;10.174;2023-02-28T10:56:21;17.70;94.60
1005;DHT22;491;53.480;10.174;2023-02-28T10:59:20;17.10;91.80
1005;DHT22;491;53.480;10.174;2023-02-28T11:01:47;17.00;90.60
1005;DHT22;491;53.480;10.174;2023-02-28T11:07:19;17.20;98.30
1005;DHT22;491;53.480;10.174;2023-02-28T11:09:48;17.70;92.30
1005;DHT22;491;53.480;10.174;2023-02-28T11:12:23;17.60;92.20
1005;DHT22;491;53.480;10.174;2023-02-28T11:14:53;18.00;93.40
1005;DHT22;491;53.480;10.174;2023-02-28T11:17:28;18.00;93.40
1005;DHT22;491;53.480;10.174;2023-02-28T11:20:01;17.40;90.50
1005;DHT22;491;53.480;10.174;2023-02-28T11:22:31;16.80;99.90
1005;DHT22;491;53.480;10.174;2023-02-28T11:25:01;17.60;90.10
1005;DHT22;491;53.480;10.174;2023-02-28T11:30:04;17.10;84.30
1005;DHT22;491;53.480;10.174;2023-02-28T11:32:51;17.10;81.60
1005;DHT22;491;53.480;10.174;2023-02-28T11:35:27;17.40;89.20
1005;DHT22;491;53.480;10.174;2023-02-28T11:37:53;17.90;92.10
1005;DHT22;491;53.480;10.174;2023-02-28T11:40:28;18.40;92.20
1005;DHT22;491;53.480;10.174;2023-02-28T11:48:27;18.40;1.00
1005;DHT22;491;53.480;10.174;2023-02-28T11:56:44;17.90;99.90
1005;DHT22;491;53.480;10.174;2023-02-28T12:02:25;18.50;99.90
1005;DHT22;491;53.480;10.174;2023-02-28T12:10:24;18.90;91.10
1005;DHT22;491;53.480;10.174;2023-02-28T12:13:18;18.90;91.70
1005;DHT22;491;53.480;10.174;2023-02-28T12:27:39;17.40;74.40
1005;DHT22;491;53.480;10.174;2023-02-28T12:30:24;17.70;99.90
1005;DHT22;491;53.480;10.174;2023-02-28T12:33:09;18.10;79.40
1005;DHT22;491;53.480;10.174;2023-02-28T12:40:47;17.20;69.30
1005;DHT22;491;53.480;10.174;2023-02-28T12:43:16;17.70;71.50
1005;DHT22;491;53.480;10.174;2023-02-28T12:48:31;17.30;56.80
1005;DHT22;491;53.480;10.174;2023-02-28T12:50:59;17.60;73.00
1005;DHT22;491;53.480;10.174;2023-02-28T12:53:48;17.90;76.10
1005;DHT22;491;53.480;10.174;2023-02-28T12:56:31;18.20;78.00
1005;DHT22;491;53.480;10.174;2023-02-28T12:59:02;17.20;69.40
1005;DHT22;491;53.480;10.174;2023-02-28T13:07:15;16.90;60.00
1005;DHT22;491;53.480;10.174;2023-02-28T13:12:21;15.20;36.90
1005;DHT22;491;53.480;10.174;2023-02-28T13:17:20;12.30;12.30
1005;DHT22;491;53.480;10.174;2023-02-28T13:27:20;12.80;23.30
1005;DHT22;491;53.480;10.174;2023-02-28T13:29:53;12.50;21.20
1005;DHT22;491;53.480;10.174;2023-02-28T13:39:54;12.50;99.90
1005;DHT22;491;53.480;10.174;2023-02-28T13:47:39;11.50;99.90
1005;DHT22;491;53.480;10.174;2023-02-28T13:53:01;11.60;99.90
1005;DHT22;491;53.480;10.174;2023-02-28T13:58:36;10.60;99.90
1005;DHT22;491;53.480;10.174;2023-02-28T15:05:32;9.50;99.90
1005;DHT22;491;53.480;10.174;2023-02-28T15:10:33;8.70;99.90
